This is the latest recevied weather packets stored in our database for station/object AG1T-20. If no packets are shown the sender has not sent any weather packets the latest 10 day(s).
| Time | Temp. | Humidity | Pressure | Rain* | Wind** | Luminosity | Snow |
|---|---|---|---|---|---|---|---|
| 1777731005 | 6.11° C | 66% | 1023.6 hPa | 0 mm | - | 577 W/m² | - |
| 1777730405 | 6.11° C | 67% | 1023.6 hPa | 0 mm | - | 534 W/m² | - |
| 1777729805 | 5° C | 70% | 1023.2 hPa | 0 mm | - | 494 W/m² | - |
| 1777729205 | 3.89° C | 74% | 1023.2 hPa | 0 mm | - | 451 W/m² | - |
| 1777728604 | 3.33° C | 76% | 1023.2 hPa | 0 mm | - | 403 W/m² | - |
| 1777728005 | 1.67° C | 84% | 1023.2 hPa | 0 mm | - | 355 W/m² | - |
| 1777727405 | 1.11° C | 84% | 1023.2 hPa | 0 mm | - | 26 W/m² | - |
| 1777726804 | 1.11° C | 83% | 1023.2 hPa | 0 mm | - | 21 W/m² | - |
| 1777726205 | 1.11° C | 83% | 1022.7 hPa | 0 mm | - | 17 W/m² | - |
| 1777725605 | 1.67° C | 81% | 1022.7 hPa | 0 mm | - | 13 W/m² | - |
| 1777725005 | 1.67° C | 82% | 1022.7 hPa | 0 mm | - | 9 W/m² | - |
| 1777724405 | 1.67° C | 81% | 1022.7 hPa | 0 mm | - | 4 W/m² | - |
| 1777723805 | 1.67° C | 82% | 1022.7 hPa | 0 mm | - | 1 W/m² | - |
| 1777723205 | 1.67° C | 81% | 1022.7 hPa | 0 mm | - | 0 W/m² | - |
| 1777722605 | 1.11° C | 83% | 1022.8 hPa | 0 mm | - | 0 W/m² | - |
| 1777722005 | 1.67° C | 83% | 1022.8 hPa | 0 mm | - | 0 W/m² | - |
| 1777721405 | 1.67° C | 82% | 1022.8 hPa | 0 mm | - | 0 W/m² | - |
| 1777720805 | 1.67° C | 82% | 1022.8 hPa | 0 mm | - | 0 W/m² | - |
| 1777720205 | 1.67° C | 82% | 1022.8 hPa | 0 mm | - | 0 W/m² | - |
| 1777719605 | 1.67° C | 81% | 1022.8 hPa | 0 mm | - | 0 W/m² | - |
| 1777719005 | 2.22° C | 79% | 1022.8 hPa | 0 mm | - | 0 W/m² | - |
| 1777718405 | 2.22° C | 79% | 1022.8 hPa | 0 mm | - | 0 W/m² | - |
| 1777717805 | 2.78° C | 77% | 1022.8 hPa | 0 mm | - | 0 W/m² | - |
| 1777717205 | 3.33° C | 74% | 1022.8 hPa | 0 mm | - | 0 W/m² | - |
| 1777716604 | 2.78° C | 77% | 1022.8 hPa | 0 mm | - | 0 W/m² | - |
* Rain latest hour (hover to see other rain measurements)
** Current wind speed in m/s (hover to see current wind gust speed)